KSEG/SEG METAR and TAF weather

Enter ICAO airport designator
Station Type Date Time Source
KSEG METAR 2019/12/08 18:53 UTC NOAA

KSEG 081853Z AUTO 19011G18KT 10SM BKN050 03/M06 A3035 RMK AO2 SLP283 T00331056


Station Type Date Time Source
KSEG Decoded METAR 2019/12/08 18:53 UTC NOAA

SELINSGROVE PENN VALLEY AIRPORT , PA, United States (KSEG) 40-49N 076-52W 134M
Dec 08, 2019 - 01:53 PM EST / 2019.12.08 1853 UTC
Wind: from the S (190 degrees) at 13 MPH (11 KT) gusting to 21 MPH (18 KT):0
Visibility: 10 mile(s):0
Sky conditions: mostly cloudy
Temperature: 37.9 F (3.3 C)
Dew Point: 21.9 F (-5.6 C)
Relative Humidity: 52%
Pressure (altimeter): 30.35 in. Hg (1027 hPa)
ob: KSEG 081853Z AUTO 19011G18KT 10SM BKN050 03/M06 A3035 RMK AO2 SLP283 T00331056
cycle: 19

Station Type Date Time Source
KSEG TAF UTC NOAA

Error!

Example: see airport list